Time;durP1;ratioP1;P1;durP2;ratioP2;P2;SDS_P1;SDS_P2;PMS_P1;PMS_P2;Temp;Humidity;BMP_temperature;BMP_pressure;BME280_temperature;BME280_humidity;BME280_pressure;Samples;Min_cycle;Max_cycle;Signal;HPM_P1;HPM_P2
2022/02/19 00:02:03;;;;;;;5.93;1.40;;;6.20;99.90;;;;;;6116678;23;20462;-77
2022/02/19 00:04:31;;;;;;;4.80;1.77;;;6.20;99.90;;;;;;6105990;23;20450;-77
2022/02/19 00:07:00;;;;;;;7.20;1.73;;;6.20;99.90;;;;;;6114532;23;20426;-77
2022/02/19 00:09:28;;;;;;;4.87;2.10;;;6.20;99.90;;;;;;6115493;23;20414;-77
2022/02/19 00:11:56;;;;;;;7.40;2.00;;;6.20;99.90;;;;;;6115242;23;20431;-78
2022/02/19 00:14:24;;;;;;;5.27;1.73;;;6.20;99.90;;;;;;6107562;23;20447;-77
2022/02/19 00:16:53;;;;;;;5.80;2.00;;;6.20;99.90;;;;;;6079823;23;20438;-76
2022/02/19 00:19:20;;;;;;;5.80;1.67;;;6.20;99.90;;;;;;6116690;23;20418;-77
2022/02/19 00:21:48;;;;;;;6.13;2.13;;;6.20;99.90;;;;;;6114036;23;20448;-77
2022/02/19 00:24:18;;;;;;;4.63;2.17;;;6.20;99.90;;;;;;6108998;23;20457;-77
2022/02/19 00:26:46;;;;;;;5.37;2.03;;;6.30;99.90;;;;;;6115671;23;20522;-77
2022/02/19 00:29:14;;;;;;;8.50;2.20;;;6.30;99.90;;;;;;6115387;23;20446;-76
2022/02/19 00:31:42;;;;;;;2.87;1.57;;;6.30;99.90;;;;;;6114784;23;20424;-77
2022/02/19 00:34:10;;;;;;;6.70;1.83;;;6.30;99.90;;;;;;6080172;23;20454;-76
2022/02/19 00:36:38;;;;;;;4.93;2.10;;;6.30;99.90;;;;;;6116227;23;20512;-77
2022/02/19 00:39:06;;;;;;;4.80;1.60;;;6.20;99.90;;;;;;6108848;23;20421;-77
2022/02/19 00:41:37;;;;;;;4.73;2.13;;;6.20;99.90;;;;;;6117501;23;20454;-76
2022/02/19 00:44:07;;;;;;;6.03;1.77;;;6.20;99.90;;;;;;6111072;23;20608;-77
2022/02/19 00:46:38;;;;;;;8.23;1.83;;;6.20;99.90;;;;;;6117303;23;20418;-77
2022/02/19 00:49:06;;;;;;;6.30;1.57;;;6.20;99.90;;;;;;6115750;23;20478;-78
2022/02/19 00:51:34;;;;;;;8.93;2.53;;;6.20;99.90;;;;;;6117248;23;20427;-77
2022/02/19 00:54:03;;;;;;;7.07;2.00;;;6.20;99.90;;;;;;6110233;23;20514;-77
2022/02/19 00:56:31;;;;;;;7.63;2.53;;;6.10;99.90;;;;;;6113591;23;20486;-77
2022/02/19 00:59:00;;;;;;;4.10;1.80;;;6.10;99.90;;;;;;6104875;23;20505;-76
2022/02/19 01:01:29;;;;;;;8.13;1.90;;;6.00;99.90;;;;;;6109909;23;20438;-76
2022/02/19 01:03:57;;;;;;;5.67;1.67;;;6.00;99.90;;;;;;6110254;23;20494;-76
2022/02/19 01:06:25;;;;;;;5.07;2.40;;;6.00;99.90;;;;;;6115489;23;20406;-77
2022/02/19 01:08:53;;;;;;;4.40;2.20;;;5.90;99.90;;;;;;6117191;23;20418;-79
2022/02/19 01:11:21;;;;;;;6.07;2.23;;;5.80;99.90;;;;;;6116677;23;20557;-77
2022/02/19 01:13:50;;;;;;;9.00;1.90;;;5.70;99.90;;;;;;6110337;23;20447;-78
2022/02/19 01:16:19;;;;;;;7.47;2.07;;;5.70;99.90;;;;;;6115301;23;20407;-76
2022/02/19 01:18:48;;;;;;;4.33;1.90;;;5.50;99.90;;;;;;6115384;23;20411;-77
2022/02/19 01:21:17;;;;;;;6.43;1.67;;;5.50;99.90;;;;;;6114465;23;20498;-76
2022/02/19 01:23:46;;;;;;;5.33;1.97;;;5.30;99.90;;;;;;6109555;23;20451;-76
2022/02/19 01:26:14;;;;;;;6.90;1.80;;;5.20;99.90;;;;;;6114264;23;20421;-76
2022/02/19 01:28:42;;;;;;;7.87;1.90;;;5.20;99.90;;;;;;6115926;23;20645;-76
2022/02/19 01:31:10;;;;;;;5.13;1.90;;;5.10;99.90;;;;;;6113938;23;20431;-76
2022/02/19 01:33:40;;;;;;;5.33;2.20;;;5.10;99.90;;;;;;6110740;23;20470;-77
2022/02/19 01:36:08;;;;;;;5.70;1.90;;;5.00;99.90;;;;;;6115281;23;20410;-77
2022/02/19 01:38:36;;;;;;;5.73;1.63;;;5.00;99.90;;;;;;6118663;23;20428;-77
2022/02/19 01:41:04;;;;;;;7.77;1.97;;;5.00;99.90;;;;;;6117293;23;20441;-77
2022/02/19 01:43:32;;;;;;;7.63;2.03;;;4.90;99.90;;;;;;6113964;23;20443;-76
2022/02/19 01:46:00;;;;;;;7.60;2.27;;;4.80;99.90;;;;;;6117675;23;20446;-77
2022/02/19 01:48:28;;;;;;;4.77;2.50;;;4.80;99.90;;;;;;6117842;23;20422;-76
2022/02/19 01:50:58;;;;;;;7.53;2.10;;;4.80;99.90;;;;;;6115724;23;20521;-77
2022/02/19 01:53:28;;;;;;;2.83;1.50;;;4.70;99.90;;;;;;6113708;23;20450;-77
2022/02/19 01:55:58;;;;;;;3.70;2.03;;;4.70;99.90;;;;;;6081290;23;20491;-77
2022/02/19 01:58:26;;;;;;;2.97;1.40;;;4.70;99.90;;;;;;6116472;23;20421;-76
2022/02/19 02:00:54;;;;;;;5.23;1.83;;;4.60;99.90;;;;;;6105962;23;20438;-76
2022/02/19 02:03:22;;;;;;;3.40;1.20;;;4.50;99.90;;;;;;6113289;23;20455;-77
2022/02/19 02:05:51;;;;;;;6.20;1.40;;;4.50;99.90;;;;;;6116968;23;20411;-76
2022/02/19 02:08:21;;;;;;;6.70;2.10;;;4.50;99.90;;;;;;6114903;23;20407;-76
2022/02/19 02:10:49;;;;;;;4.67;2.10;;;4.50;99.90;;;;;;6115602;23;20430;-76
2022/02/19 02:13:17;;;;;;;4.40;1.63;;;4.60;99.90;;;;;;6114705;23;20454;-76
2022/02/19 02:15:46;;;;;;;6.47;2.00;;;4.60;99.90;;;;;;6116249;23;20486;-76
2022/02/19 02:18:14;;;;;;;6.10;2.10;;;4.60;99.90;;;;;;6116292;23;20494;-76
2022/02/19 02:20:42;;;;;;;3.70;2.07;;;4.60;99.90;;;;;;6114387;23;20436;-78
2022/02/19 02:23:14;;;;;;;3.50;1.40;;;4.60;99.90;;;;;;6114476;23;20443;-76
2022/02/19 02:25:43;;;;;;;5.17;1.47;;;4.60;99.90;;;;;;6117502;23;20412;-76
2022/02/19 02:28:11;;;;;;;7.27;1.83;;;4.60;99.90;;;;;;6116611;23;20419;-76
2022/02/19 02:30:40;;;;;;;5.40;2.27;;;4.60;99.90;;;;;;6080160;23;20514;-77
2022/02/19 02:33:10;;;;;;;4.23;1.63;;;4.60;99.90;;;;;;6114076;23;20450;-77
2022/02/19 02:35:39;;;;;;;6.90;2.00;;;4.50;99.90;;;;;;6105782;23;20427;-76
2022/02/19 02:38:08;;;;;;;3.63;2.00;;;4.50;99.90;;;;;;6117405;23;20415;-76
2022/02/19 02:40:37;;;;;;;9.43;2.13;;;4.60;99.90;;;;;;6116179;23;20440;-76
2022/02/19 02:43:06;;;;;;;6.33;1.90;;;4.60;99.90;;;;;;6114577;23;20431;-76
2022/02/19 02:45:34;;;;;;;5.50;2.10;;;4.70;99.90;;;;;;6116393;23;20434;-76
2022/02/19 02:48:21;;;;;;;9.37;2.10;;;4.70;99.90;;;;;;6115631;23;20425;-76
2022/02/19 02:50:49;;;;;;;8.50;2.70;;;4.70;99.90;;;;;;6115508;23;20423;-76
2022/02/19 02:53:37;;;;;;;10.43;1.90;;;4.80;99.90;;;;;;6111477;23;20449;-77
2022/02/19 02:56:07;;;;;;;9.87;2.20;;;4.80;99.90;;;;;;6117268;23;20441;-77
2022/02/19 02:58:35;;;;;;;6.10;2.17;;;4.80;99.90;;;;;;6117630;23;20429;-77
2022/02/19 03:01:03;;;;;;;10.73;2.20;;;4.80;99.90;;;;;;6115290;23;20439;-76
2022/02/19 03:03:32;;;;;;;9.60;2.13;;;4.90;99.90;;;;;;6113325;23;20512;-77
2022/02/19 03:06:00;;;;;;;6.77;1.80;;;4.90;99.90;;;;;;6116776;23;20430;-77
2022/02/19 03:08:28;;;;;;;9.60;2.37;;;4.90;99.90;;;;;;6115736;23;20435;-77
2022/02/19 03:10:56;;;;;;;11.20;2.20;;;4.90;99.90;;;;;;6081211;23;20451;-77
2022/02/19 03:13:26;;;;;;;14.47;3.00;;;4.90;99.90;;;;;;6113677;23;20526;-77
2022/02/19 03:15:54;;;;;;;8.90;3.20;;;4.90;99.90;;;;;;6115780;23;20411;-76
2022/02/19 03:18:22;;;;;;;7.40;2.07;;;5.00;99.90;;;;;;6115714;23;20419;-76
2022/02/19 03:20:50;;;;;;;9.37;2.90;;;5.00;99.90;;;;;;6104512;23;20435;-76
2022/02/19 03:23:18;;;;;;;9.07;2.83;;;4.90;99.90;;;;;;6114021;23;20442;-76
2022/02/19 03:25:46;;;;;;;6.73;2.47;;;4.80;99.90;;;;;;6114177;23;20415;-76
2022/02/19 03:28:14;;;;;;;3.20;1.00;;;4.60;99.90;;;;;;6116720;23;20434;-76
2022/02/19 03:30:43;;;;;;;4.50;1.50;;;4.50;99.90;;;;;;6080210;23;20445;-76
2022/02/19 03:33:11;;;;;;;4.20;1.30;;;4.40;99.90;;;;;;6113649;23;20450;-77
2022/02/19 03:35:39;;;;;;;8.80;2.00;;;4.40;99.90;;;;;;6114895;23;20446;-76
2022/02/19 03:38:07;;;;;;;2.73;1.17;;;4.30;99.90;;;;;;6115282;23;20411;-76
2022/02/19 03:40:35;;;;;;;1.97;0.90;;;4.20;99.90;;;;;;6115353;23;20435;-76
2022/02/19 03:43:04;;;;;;;2.00;0.80;;;4.10;99.90;;;;;;6077245;23;20451;-76
2022/02/19 03:45:35;;;;;;;1.90;1.00;;;4.00;99.90;;;;;;6115469;23;20419;-76
2022/02/19 03:48:05;;;;;;;1.13;0.80;;;4.00;99.90;;;;;;6115715;23;20395;-76
2022/02/19 03:50:33;;;;;;;2.33;0.80;;;3.90;99.90;;;;;;6113484;23;20518;-76
2022/02/19 03:53:01;;;;;;;1.70;0.40;;;3.90;99.90;;;;;;6113905;23;20499;-77
2022/02/19 03:55:30;;;;;;;2.63;0.60;;;3.90;99.90;;;;;;6113602;23;20420;-76
2022/02/19 03:57:58;;;;;;;1.43;0.70;;;3.90;99.90;;;;;;6114417;23;20446;-76
2022/02/19 04:00:26;;;;;;;1.77;0.67;;;3.90;99.90;;;;;;6104112;23;20494;-76
2022/02/19 04:02:54;;;;;;;1.90;0.77;;;4.00;99.90;;;;;;6114183;23;20431;-76
2022/02/19 04:05:24;;;;;;;3.00;0.80;;;4.00;99.90;;;;;;6117512;23;20478;-77
2022/02/19 04:07:52;;;;;;;0.80;0.60;;;4.00;99.90;;;;;;6117791;23;20407;-77
2022/02/19 04:10:19;;;;;;;1.53;0.70;;;4.00;99.90;;;;;;6116867;23;20431;-77
2022/02/19 04:12:47;;;;;;;7.90;1.50;;;3.90;99.90;;;;;;6116649;23;20474;-76
2022/02/19 04:15:15;;;;;;;3.07;1.00;;;3.90;99.90;;;;;;6116644;23;20415;-76
2022/02/19 04:17:43;;;;;;;6.80;1.10;;;3.90;99.90;;;;;;6116652;23;20410;-76
2022/02/19 04:20:11;;;;;;;2.80;0.80;;;4.00;99.90;;;;;;6114922;23;20444;-76
2022/02/19 04:22:41;;;;;;;2.13;1.10;;;4.00;99.90;;;;;;6117154;23;20488;-76
2022/02/19 04:25:11;;;;;;;3.57;1.00;;;4.00;99.90;;;;;;6105282;23;20537;-77
2022/02/19 04:27:41;;;;;;;1.83;1.10;;;4.00;99.90;;;;;;6116766;23;20402;-77
2022/02/19 04:30:10;;;;;;;5.13;1.80;;;4.00;99.90;;;;;;6107892;23;20442;-77
2022/02/19 04:32:38;;;;;;;3.73;1.87;;;4.00;99.90;;;;;;6117121;23;20413;-77
2022/02/19 04:35:07;;;;;;;6.53;1.00;;;4.00;99.90;;;;;;6107877;23;20450;-76
2022/02/19 04:37:35;;;;;;;4.07;1.47;;;4.00;99.90;;;;;;6108881;23;20719;-76
2022/02/19 04:40:08;;;;;;;5.23;1.70;;;4.00;99.90;;;;;;6117869;23;20430;-76
2022/02/19 04:42:36;;;;;;;5.70;1.30;;;4.00;99.90;;;;;;6117687;23;20442;-76
2022/02/19 04:45:05;;;;;;;4.40;1.00;;;3.90;99.90;;;;;;6081584;23;20444;-77
2022/02/19 04:47:34;;;;;;;2.90;1.40;;;3.90;99.90;;;;;;6108234;23;20476;-77
2022/02/19 04:50:02;;;;;;;2.30;0.70;;;3.90;99.90;;;;;;6116590;23;20414;-76
2022/02/19 04:52:30;;;;;;;4.03;1.10;;;3.90;99.90;;;;;;6117920;23;20407;-77
2022/02/19 04:54:58;;;;;;;2.70;1.10;;;3.90;99.90;;;;;;6106551;23;20562;-76
2022/02/19 04:57:28;;;;;;;2.93;1.00;;;3.90;99.90;;;;;;6117476;23;20410;-77
2022/02/19 04:59:56;;;;;;;2.30;1.10;;;3.90;99.90;;;;;;6116519;23;20421;-77
2022/02/19 05:02:24;;;;;;;5.03;1.10;;;3.90;99.90;;;;;;6116659;23;20426;-77
2022/02/19 05:04:52;;;;;;;3.33;1.30;;;3.90;99.90;;;;;;6107524;23;20539;-76
2022/02/19 05:07:20;;;;;;;2.10;1.00;;;3.90;99.90;;;;;;6116832;23;20419;-76
2022/02/19 05:09:48;;;;;;;4.30;1.20;;;3.90;99.90;;;;;;6117321;23;20414;-76
2022/02/19 05:12:16;;;;;;;5.00;1.03;;;3.90;99.90;;;;;;6116568;23;20418;-76
2022/02/19 05:14:45;;;;;;;3.30;1.07;;;4.00;99.90;;;;;;6107265;23;20447;-77
2022/02/19 05:17:15;;;;;;;4.20;1.30;;;3.90;99.90;;;;;;6116530;23;20411;-77
2022/02/19 05:19:43;;;;;;;6.27;1.57;;;3.90;99.90;;;;;;6114961;23;20511;-77
2022/02/19 05:22:11;;;;;;;7.77;1.30;;;4.00;99.90;;;;;;6079070;23;20435;-77
2022/02/19 05:24:40;;;;;;;9.03;1.50;;;4.00;99.90;;;;;;6107757;23;20457;-76
2022/02/19 05:27:08;;;;;;;5.73;2.03;;;4.00;99.90;;;;;;6117024;23;20418;-76
2022/02/19 05:29:36;;;;;;;4.93;1.30;;;4.10;99.90;;;;;;6115135;23;20415;-76
2022/02/19 05:32:06;;;;;;;5.80;1.80;;;4.10;99.90;;;;;;6115745;23;20436;-77
2022/02/19 05:34:34;;;;;;;7.13;1.73;;;4.10;99.90;;;;;;6081453;23;20443;-77
2022/02/19 05:37:02;;;;;;;3.57;1.60;;;4.10;99.90;;;;;;6116014;23;20415;-76
2022/02/19 05:39:30;;;;;;;4.90;2.10;;;4.10;99.90;;;;;;6107400;23;20968;-76
2022/02/19 05:41:58;;;;;;;3.53;1.50;;;4.20;99.90;;;;;;6116788;23;20494;-77
2022/02/19 05:44:26;;;;;;;5.60;1.53;;;4.20;99.90;;;;;;6111049;23;20461;-77
2022/02/19 05:46:54;;;;;;;8.33;1.90;;;4.30;99.90;;;;;;6116679;23;20411;-77
2022/02/19 05:49:23;;;;;;;9.03;1.90;;;4.30;99.90;;;;;;6117998;23;20521;-77
2022/02/19 05:51:54;;;;;;;3.80;1.60;;;4.30;99.90;;;;;;6114152;23;20737;-76
2022/02/19 05:54:23;;;;;;;3.40;1.43;;;4.20;99.90;;;;;;6107639;23;20447;-77
2022/02/19 05:56:51;;;;;;;5.97;1.33;;;4.20;99.90;;;;;;6115171;23;20419;-77
2022/02/19 05:59:19;;;;;;;1.40;1.20;;;4.20;99.90;;;;;;6115071;23;20415;-77
2022/02/19 06:01:47;;;;;;;2.10;1.10;;;4.10;99.90;;;;;;6113151;23;20427;-76
2022/02/19 06:04:15;;;;;;;3.00;1.27;;;4.00;99.90;;;;;;6107474;23;20538;-77
2022/02/19 06:06:44;;;;;;;2.73;1.20;;;4.00;99.90;;;;;;6114243;23;20413;-77
2022/02/19 06:09:12;;;;;;;4.93;1.83;;;3.90;99.90;;;;;;6105970;23;20495;-77
2022/02/19 06:11:42;;;;;;;6.77;1.03;;;3.90;99.90;;;;;;6115164;23;20431;-77
2022/02/19 06:14:10;;;;;;;3.93;1.20;;;4.00;99.90;;;;;;6108226;23;20470;-76
2022/02/19 06:16:38;;;;;;;5.67;1.20;;;3.90;99.90;;;;;;6112291;23;20415;-76
2022/02/19 06:19:06;;;;;;;2.77;1.00;;;3.90;99.90;;;;;;6114977;23;20422;-76
2022/02/19 06:21:34;;;;;;;4.07;1.07;;;3.90;99.90;;;;;;6113135;23;20541;-76
2022/02/19 06:24:03;;;;;;;2.10;1.10;;;3.90;99.90;;;;;;6109089;23;20458;-77
2022/02/19 06:26:32;;;;;;;3.07;0.90;;;3.90;99.90;;;;;;6112403;23;20415;-77
2022/02/19 06:29:00;;;;;;;2.60;0.90;;;4.00;99.90;;;;;;6110519;23;20469;-76
2022/02/19 06:31:28;;;;;;;3.90;1.07;;;4.00;99.90;;;;;;6076678;23;20597;-76
2022/02/19 06:33:56;;;;;;;2.60;1.10;;;4.00;99.90;;;;;;6106196;23;20457;-77
2022/02/19 06:36:24;;;;;;;3.13;1.13;;;3.90;99.90;;;;;;6114247;23;20473;-76
2022/02/19 06:38:52;;;;;;;1.80;0.80;;;3.90;99.90;;;;;;6114034;23;20510;-76
2022/02/19 06:41:21;;;;;;;2.40;1.07;;;3.80;99.90;;;;;;6112871;23;20431;-76
2022/02/19 06:43:49;;;;;;;1.00;0.60;;;3.70;99.90;;;;;;6107448;23;20455;-77
2022/02/19 06:46:17;;;;;;;1.13;0.80;;;3.70;99.90;;;;;;6108939;23;20415;-77
2022/02/19 06:48:45;;;;;;;2.40;1.23;;;3.60;99.90;;;;;;6112872;23;20419;-77
2022/02/19 06:51:13;;;;;;;2.57;0.70;;;3.60;99.90;;;;;;6115032;23;20441;-77
2022/02/19 06:53:44;;;;;;;1.63;0.60;;;3.60;99.90;;;;;;6108697;23;20463;-78
2022/02/19 06:56:12;;;;;;;1.60;0.70;;;3.60;99.90;;;;;;6111070;23;20411;-78
2022/02/19 06:58:42;;;;;;;2.30;0.60;;;3.70;99.90;;;;;;6110402;23;20418;-76
2022/02/19 07:01:10;;;;;;;3.87;0.93;;;3.70;99.90;;;;;;6100657;23;20473;-77
2022/02/19 07:03:38;;;;;;;3.67;1.33;;;3.60;99.90;;;;;;6106258;23;20458;-75
2022/02/19 07:06:06;;;;;;;3.13;0.77;;;3.60;99.90;;;;;;6100035;23;20445;-75
2022/02/19 07:08:34;;;;;;;4.03;0.97;;;3.50;99.90;;;;;;6103835;23;20473;-75
2022/02/19 07:11:03;;;;;;;2.87;0.80;;;3.50;99.90;;;;;;6106771;23;20431;-76
2022/02/19 07:13:31;;;;;;;2.00;0.93;;;3.50;99.90;;;;;;6106187;23;20466;-77
2022/02/19 07:16:02;;;;;;;2.83;1.17;;;3.50;99.90;;;;;;6111165;23;20410;-75
2022/02/19 07:18:30;;;;;;;4.40;1.17;;;3.40;99.90;;;;;;6108667;23;20430;-75
2022/02/19 07:20:58;;;;;;;5.20;0.83;;;3.40;99.90;;;;;;6110306;23;20427;-76
2022/02/19 07:23:26;;;;;;;2.70;0.90;;;3.40;99.90;;;;;;6106672;23;20461;-76
2022/02/19 07:25:54;;;;;;;1.80;0.87;;;3.40;99.90;;;;;;6106715;23;20496;-75
2022/02/19 07:28:22;;;;;;;4.40;1.10;;;3.40;99.90;;;;;;6103469;23;20431;-75
2022/02/19 07:30:50;;;;;;;3.60;1.07;;;3.30;99.90;;;;;;6109440;23;20621;-75
2022/02/19 07:33:20;;;;;;;6.90;1.83;;;3.30;99.90;;;;;;6103457;23;20508;-76
2022/02/19 07:35:48;;;;;;;1.90;1.17;;;3.30;99.90;;;;;;6111499;23;20482;-75
2022/02/19 07:38:16;;;;;;;4.60;2.37;;;3.40;99.90;;;;;;6110212;23;20442;-76
2022/02/19 07:40:44;;;;;;;3.50;2.10;;;3.40;99.90;;;;;;6106759;23;20453;-74
2022/02/19 07:43:12;;;;;;;5.87;1.60;;;3.50;99.90;;;;;;6106972;23;20438;-76
2022/02/19 07:45:40;;;;;;;4.80;1.77;;;3.40;99.90;;;;;;6098263;23;20438;-76
2022/02/19 07:48:12;;;;;;;2.93;1.23;;;3.50;99.90;;;;;;6108414;23;20481;-74
2022/02/19 07:58:58;;;;;;;3.00;1.40;;;3.70;99.90;;;;;;6093063;23;20490;-76
2022/02/19 08:01:26;;;;;;;5.50;1.50;;;3.80;99.90;;;;;;6107897;23;20456;-75
2022/02/19 08:03:54;;;;;;;3.30;1.00;;;3.90;99.90;;;;;;6105666;23;20454;-76
2022/02/19 08:06:23;;;;;;;2.70;1.20;;;3.90;99.90;;;;;;6112892;23;20430;-75
2022/02/19 08:08:51;;;;;;;4.03;1.43;;;4.00;99.90;;;;;;6109505;23;20422;-75
2022/02/19 08:11:19;;;;;;;2.80;1.07;;;4.00;99.90;;;;;;6100268;23;20443;-76
2022/02/19 08:13:47;;;;;;;6.07;1.23;;;4.10;99.90;;;;;;6109485;23;20793;-75
2022/02/19 08:16:15;;;;;;;5.67;1.30;;;4.20;99.90;;;;;;6089731;23;20407;-76
2022/02/19 08:18:47;;;;;;;4.23;1.20;;;4.30;99.90;;;;;;6115633;23;20434;-77
2022/02/19 08:21:15;;;;;;;1.70;1.13;;;4.40;99.90;;;;;;6114009;23;20441;-78
2022/02/19 08:23:45;;;;;;;3.90;0.90;;;4.40;99.90;;;;;;6110875;23;20450;-77
2022/02/19 08:26:13;;;;;;;3.57;0.90;;;4.40;99.90;;;;;;6115972;23;20431;-78
2022/02/19 08:28:41;;;;;;;3.47;1.13;;;4.50;99.90;;;;;;6105864;23;20461;-77
2022/02/19 08:31:09;;;;;;;3.30;1.10;;;4.50;99.90;;;;;;6098797;23;20434;-75
2022/02/19 08:33:37;;;;;;;2.00;0.80;;;4.50;99.90;;;;;;6111409;23;20465;-77
2022/02/19 08:36:05;;;;;;;5.60;1.17;;;4.60;99.90;;;;;;6118021;23;20410;-78
2022/02/19 08:38:33;;;;;;;3.03;1.40;;;4.60;99.90;;;;;;6117477;23;20569;-78
2022/02/19 08:41:03;;;;;;;5.63;1.60;;;4.60;99.90;;;;;;6116112;23;20435;-78
2022/02/19 08:43:31;;;;;;;2.30;1.10;;;4.70;99.90;;;;;;6112178;23;20470;-78
2022/02/19 08:45:59;;;;;;;3.33;1.30;;;4.80;99.90;;;;;;6115851;23;20498;-79
2022/02/19 08:48:28;;;;;;;5.63;1.20;;;4.90;99.90;;;;;;6114164;23;20443;-78
2022/02/19 08:50:57;;;;;;;2.27;1.50;;;4.90;99.90;;;;;;6114628;23;20431;-77
2022/02/19 08:53:25;;;;;;;1.93;1.33;;;5.00;99.90;;;;;;6110852;23;20663;-77
2022/02/19 08:55:54;;;;;;;3.67;1.30;;;5.10;99.90;;;;;;6115933;23;20503;-77
2022/02/19 08:58:24;;;;;;;2.13;1.00;;;5.10;99.90;;;;;;6116937;23;20415;-78
2022/02/19 09:00:52;;;;;;;3.07;1.10;;;5.10;99.90;;;;;;6116343;23;20522;-78
2022/02/19 09:03:20;;;;;;;2.63;1.10;;;5.20;99.90;;;;;;6113925;23;20451;-78
2022/02/19 09:05:48;;;;;;;0.77;0.77;;;5.20;99.90;;;;;;6116665;23;20573;-78
2022/02/19 09:08:16;;;;;;;1.87;1.10;;;5.20;99.90;;;;;;6115922;23;20425;-77
2022/02/19 09:10:44;;;;;;;2.67;1.10;;;5.20;99.90;;;;;;6116657;23;20438;-78
2022/02/19 09:13:12;;;;;;;1.37;1.03;;;5.10;99.90;;;;;;6112982;23;20506;-76
2022/02/19 09:15:42;;;;;;;1.20;1.10;;;5.20;99.90;;;;;;6115372;23;20406;-78
2022/02/19 09:18:10;;;;;;;1.70;1.10;;;5.10;99.90;;;;;;6114891;23;20411;-77
2022/02/19 09:20:38;;;;;;;1.27;0.90;;;5.10;99.90;;;;;;6103664;23;20443;-76
2022/02/19 09:23:06;;;;;;;1.27;0.80;;;5.00;99.90;;;;;;6112566;23;20423;-77
2022/02/19 09:25:34;;;;;;;0.60;0.60;;;4.90;99.90;;;;;;6114307;23;20431;-77
2022/02/19 09:28:02;;;;;;;0.60;0.50;;;4.90;99.90;;;;;;6112847;23;20454;-77
2022/02/19 09:30:30;;;;;;;0.40;0.40;;;4.80;99.90;;;;;;6106172;23;20515;-76
2022/02/19 09:33:01;;;;;;;0.50;0.50;;;4.80;99.90;;;;;;6120025;23;20419;-77
2022/02/19 09:35:29;;;;;;;0.50;0.40;;;4.70;99.90;;;;;;6112451;23;20423;-77
2022/02/19 09:37:57;;;;;;;0.50;0.40;;;4.80;99.90;;;;;;6104399;23;20485;-77
2022/02/19 09:40:26;;;;;;;1.57;0.57;;;4.70;99.90;;;;;;6114152;23;20427;-77
2022/02/19 09:42:54;;;;;;;0.90;0.47;;;4.50;99.90;;;;;;6107704;23;20407;-76
2022/02/19 09:45:28;;;;;;;0.40;0.40;;;4.20;99.90;;;;;;6109418;23;20471;-76
2022/02/19 09:47:57;;;;;;;0.87;0.60;;;4.00;99.90;;;;;;6110610;23;20710;-77
2022/02/19 09:50:28;;;;;;;2.30;0.80;;;3.90;99.90;;;;;;6073445;23;20548;-76
2022/02/19 09:52:56;;;;;;;1.00;0.70;;;3.80;99.90;;;;;;6110710;23;20428;-77
2022/02/19 09:55:26;;;;;;;1.83;0.70;;;3.80;99.90;;;;;;6100168;23;20415;-77
2022/02/19 09:57:54;;;;;;;1.13;0.90;;;3.80;99.90;;;;;;6111439;23;20415;-77
2022/02/19 10:00:30;;;;;;;1.40;0.80;;;3.80;99.90;;;;;;6109587;23;20494;-76
2022/02/19 10:02:59;;;;;;;0.80;0.80;;;3.70;99.90;;;;;;6108421;23;20421;-76
2022/02/19 10:05:31;;;;;;;2.30;1.10;;;3.70;99.90;;;;;;6110175;23;20407;-77
2022/02/19 10:08:04;;;;;;;1.27;1.03;;;3.70;99.90;;;;;;6111601;23;20407;-75
2022/02/19 10:10:34;;;;;;;1.70;1.00;;;3.70;99.90;;;;;;6112335;23;20517;-76
2022/02/19 10:13:10;;;;;;;1.13;0.90;;;3.60;99.90;;;;;;6101187;23;20836;-74
2022/02/19 10:15:40;;;;;;;2.03;0.97;;;3.50;99.90;;;;;;6110960;23;20738;-74
2022/02/19 10:18:28;;;;;;;4.60;1.20;;;3.50;99.90;;;;;;6107208;23;20509;-74
2022/02/19 10:21:11;;;;;;;2.30;1.20;;;3.50;99.90;;;;;;6108687;23;20423;-76
2022/02/19 10:23:42;;;;;;;2.33;1.00;;;3.40;99.90;;;;;;6105744;23;20454;-78
2022/02/19 10:26:11;;;;;;;1.03;0.80;;;3.50;99.90;;;;;;6111190;23;20458;-75
2022/02/19 10:28:40;;;;;;;3.20;0.80;;;3.50;99.90;;;;;;6101197;23;20503;-75
2022/02/19 10:31:12;;;;;;;1.20;0.80;;;3.50;99.90;;;;;;6109665;23;20465;-76
2022/02/19 10:33:40;;;;;;;2.60;0.73;;;3.60;99.90;;;;;;6101678;23;20451;-78
2022/02/19 10:36:18;;;;;;;2.37;0.83;;;3.60;99.90;;;;;;6116690;23;20392;-79
2022/02/19 10:38:53;;;;;;;2.30;0.80;;;3.80;99.90;;;;;;6118184;23;20502;-78
2022/02/19 10:41:32;;;;;;;2.00;0.83;;;3.90;99.90;;;;;;6112280;23;20469;-77
2022/02/19 10:44:19;;;;;;;2.07;1.30;;;4.00;99.90;;;;;;6104538;23;20454;-77
2022/02/19 10:46:48;;;;;;;5.07;1.90;;;4.10;99.90;;;;;;6111052;23;20434;-77
2022/02/19 10:49:16;;;;;;;7.63;3.60;;;4.30;99.90;;;;;;6111308;23;20615;-77
2022/02/19 10:51:45;;;;;;;4.50;1.90;;;4.40;99.90;;;;;;6110744;23;20430;-77
2022/02/19 10:54:20;;;;;;;4.50;2.07;;;4.60;99.90;;;;;;6099537;23;20442;-77
2022/02/19 10:56:48;;;;;;;4.60;2.10;;;4.70;99.90;;;;;;6109105;23;20407;-76
2022/02/19 10:59:17;;;;;;;6.97;2.47;;;4.80;99.90;;;;;;6108381;23;20498;-76
2022/02/19 11:01:46;;;;;;;7.10;3.33;;;4.80;99.90;;;;;;6107554;23;20546;-76
2022/02/19 11:04:16;;;;;;;6.10;2.77;;;4.90;99.90;;;;;;6100977;23;20485;-75
2022/02/19 11:06:46;;;;;;;4.33;2.10;;;5.00;99.90;;;;;;6106753;23;20435;-75
2022/02/19 11:09:15;;;;;;;6.40;2.50;;;5.10;99.90;;;;;;6106456;23;20461;-76
2022/02/19 11:11:45;;;;;;;5.40;2.17;;;5.20;99.90;;;;;;6110113;23;20435;-76
2022/02/19 11:14:15;;;;;;;4.80;1.80;;;5.20;99.90;;;;;;6102900;23;20459;-76
2022/02/19 11:16:43;;;;;;;8.33;2.20;;;5.30;99.90;;;;;;6111158;23;20407;-77
2022/02/19 11:19:16;;;;;;;4.07;1.80;;;5.30;99.90;;;;;;6112007;23;20510;-77
2022/02/19 11:21:46;;;;;;;4.07;2.00;;;5.40;99.90;;;;;;6111933;23;20450;-76
2022/02/19 11:24:16;;;;;;;7.27;1.90;;;5.50;99.90;;;;;;6105286;23;20462;-76
2022/02/19 11:26:47;;;;;;;7.63;2.07;;;5.50;99.90;;;;;;6110421;23;20446;-76
2022/02/19 11:29:19;;;;;;;5.13;2.07;;;5.60;99.90;;;;;;6112011;23;20433;-76
2022/02/19 11:31:49;;;;;;;4.00;1.43;;;5.60;99.90;;;;;;6110531;23;20431;-76
2022/02/19 11:34:20;;;;;;;5.30;1.90;;;5.60;99.90;;;;;;6102775;23;20462;-77
2022/02/19 11:36:50;;;;;;;3.33;1.33;;;5.50;99.90;;;;;;6106087;23;20415;-76
2022/02/19 11:39:19;;;;;;;2.90;1.47;;;5.50;99.90;;;;;;6103919;23;20506;-76
2022/02/19 11:41:49;;;;;;;5.20;1.70;;;5.60;99.90;;;;;;6099953;23;20466;-77
2022/02/19 11:44:30;;;;;;;3.27;2.00;;;5.70;99.90;;;;;;6074175;23;20511;-78
2022/02/19 11:46:58;;;;;;;5.67;1.60;;;5.80;99.90;;;;;;6073021;23;20494;-77
2022/02/19 11:49:28;;;;;;;6.27;1.50;;;6.00;99.90;;;;;;6111067;23;20513;-77
2022/02/19 11:52:18;;;;;;;6.37;1.40;;;6.00;99.90;;;;;;6114409;23;20435;-76
2022/02/19 11:55:28;;;;;;;4.10;1.30;;;6.00;99.90;;;;;;6105163;23;20450;-77
2022/02/19 11:58:05;;;;;;;3.60;1.43;;;5.90;99.90;;;;;;6115384;23;20412;-77
2022/02/19 12:00:46;;;;;;;4.10;1.30;;;5.80;99.90;;;;;;6113595;23;20430;-77
2022/02/19 12:03:24;;;;;;;2.40;1.30;;;5.90;99.90;;;;;;6076203;23;20446;-77
2022/02/19 12:06:13;;;;;;;3.00;1.40;;;5.90;99.90;;;;;;6114847;23;20494;-77
2022/02/19 12:09:04;;;;;;;5.20;1.60;;;5.90;99.90;;;;;;6111872;23;20430;-76
2022/02/19 12:11:33;;;;;;;2.30;1.40;;;5.80;99.90;;;;;;6098800;23;20461;-77
2022/02/19 12:14:01;;;;;;;4.67;1.70;;;5.70;99.90;;;;;;6105249;23;20447;-77
2022/02/19 12:16:45;;;;;;;5.87;1.77;;;5.60;99.90;;;;;;6116500;23;20439;-77
2022/02/19 12:19:13;;;;;;;3.83;1.50;;;5.90;99.90;;;;;;6113507;23;20411;-77
2022/02/19 12:21:43;;;;;;;3.07;1.47;;;6.50;99.90;;;;;;6112850;23;20522;-78
2022/02/19 12:24:15;;;;;;;4.83;1.80;;;7.20;99.90;;;;;;6101950;23;20439;-77
2022/02/19 12:27:15;;;;;;;4.03;2.30;;;7.40;99.90;;;;;;6111523;23;20439;-77
2022/02/19 12:29:46;;;;;;;5.70;1.80;;;7.80;99.90;;;;;;6109564;23;20903;-77
2022/02/19 12:32:17;;;;;;;3.00;1.53;;;8.80;99.90;;;;;;6106606;23;20527;-76
2022/02/19 12:34:50;;;;;;;3.00;1.53;;;9.10;99.90;;;;;;6093425;23;20473;-77
2022/02/19 12:37:18;;;;;;;4.23;1.63;;;9.00;99.90;;;;;;6106365;23;20411;-77
2022/02/19 12:39:50;;;;;;;4.60;2.10;;;9.20;99.90;;;;;;6102875;23;20442;-79
2022/02/19 12:42:19;;;;;;;3.30;1.70;;;10.60;99.90;;;;;;6099140;23;20415;-79
2022/02/19 12:44:48;;;;;;;2.90;1.70;;;10.80;99.90;;;;;;6086767;23;20451;-78
2022/02/19 12:47:17;;;;;;;3.50;1.60;;;11.60;99.90;;;;;;6098158;23;20466;-76
2022/02/19 12:49:45;;;;;;;5.97;2.47;;;13.50;99.90;;;;;;6097280;23;20498;-76
2022/02/19 12:52:13;;;;;;;3.93;1.97;;;15.50;99.90;;;;;;6096332;23;20470;-76
2022/02/19 12:54:43;;;;;;;4.03;1.70;;;17.90;99.90;;;;;;6086441;23;20454;-77
2022/02/19 12:57:15;;;;;;;4.70;1.90;;;19.10;99.90;;;;;;6089107;23;20411;-76
2022/02/19 12:59:44;;;;;;;4.73;1.80;;;20.20;99.90;;;;;;6100853;23;20415;-77
2022/02/19 13:02:13;;;;;;;3.37;1.80;;;18.70;99.90;;;;;;6098658;23;20411;-76
2022/02/19 13:04:43;;;;;;;4.33;1.97;;;16.30;99.90;;;;;;6091833;23;20453;-76
2022/02/19 13:07:12;;;;;;;4.80;1.77;;;14.10;99.90;;;;;;6100865;23;20498;-76
2022/02/19 13:09:40;;;;;;;6.13;2.30;;;12.60;99.90;;;;;;6101598;23;20435;-78
2022/02/19 13:12:09;;;;;;;3.80;1.90;;;11.30;99.90;;;;;;6101499;23;20544;-78
2022/02/19 13:14:50;;;;;;;6.70;2.30;;;10.50;99.90;;;;;;6091889;23;20446;-78
2022/02/19 13:17:18;;;;;;;7.43;2.30;;;9.80;99.90;;;;;;6106901;23;20414;-79